createdAt,value
2019-06-25T00:51:03.302Z,4.67
2019-06-25T00:53:51.250Z,4.53
2019-06-25T04:37:46.720Z,5.70
2019-06-25T05:47:49.685Z,3.30
2019-06-25T05:50:23.276Z,3.43
2019-06-25T05:52:52.129Z,3.30
2019-06-25T05:55:23.525Z,2.90
2019-06-25T05:57:52.200Z,4.10
2019-06-25T06:00:20.910Z,4.27
2019-06-25T06:02:49.506Z,3.00
2019-06-25T06:05:18.015Z,3.45
2019-06-25T06:07:46.496Z,3.93
2019-06-25T06:10:15.375Z,3.33
2019-06-25T06:12:43.912Z,3.80
2019-06-25T06:15:12.663Z,3.10
2019-06-25T06:17:47.380Z,4.10
2019-06-25T06:20:16.029Z,3.37
2019-06-25T06:22:44.520Z,3.13
2019-06-25T06:25:13.334Z,3.77
2019-06-25T06:27:41.843Z,3.20
2019-06-25T06:30:10.454Z,3.40
2019-06-25T06:32:38.982Z,3.00
2019-06-25T06:35:10.634Z,3.60
2019-06-25T06:37:39.533Z,2.70
2019-06-25T06:40:09.261Z,2.65
2019-06-25T06:42:41.374Z,2.60
2019-06-25T06:47:57.220Z,2.77
2019-06-25T06:50:26.397Z,2.62
2019-06-25T06:52:55.370Z,2.83
2019-06-25T06:58:17.195Z,2.60
2019-06-25T07:04:07.409Z,2.55
2019-06-25T07:06:36.967Z,2.70
2019-06-25T07:09:07.231Z,2.55
2019-06-25T07:11:36.864Z,2.95
2019-06-25T07:14:06.115Z,2.83
2019-06-25T07:16:39.138Z,2.58
2019-06-25T07:19:56.899Z,2.75
2019-06-25T07:22:26.148Z,2.98
2019-06-25T07:24:55.539Z,2.50
2019-06-25T07:27:26.998Z,2.60
2019-06-25T07:29:56.644Z,3.05
2019-06-25T07:32:25.803Z,2.67
2019-06-25T07:34:54.934Z,2.67
2019-06-25T07:37:24.196Z,2.77
2019-06-25T07:39:53.485Z,2.58
2019-06-25T07:42:24.283Z,2.70
2019-06-25T07:44:53.445Z,2.80
2019-06-25T07:47:22.477Z,2.58
2019-06-25T07:49:53.919Z,2.55
2019-06-25T07:52:23.213Z,2.80
2019-06-25T07:54:51.795Z,2.58
2019-06-25T07:57:20.301Z,2.55
2019-06-25T07:59:48.811Z,4.40
2019-06-25T08:02:18.590Z,3.22
2019-06-25T08:04:47.215Z,3.62
2019-06-25T08:07:15.749Z,2.70
2019-06-25T08:09:44.213Z,4.33
2019-06-25T08:12:12.739Z,3.98
2019-06-25T08:14:41.283Z,4.42
2019-06-25T08:17:09.821Z,4.42
2019-06-25T08:19:38.326Z,2.80
2019-06-25T08:22:06.863Z,2.60
2019-06-25T08:24:35.366Z,3.20
2019-06-25T08:27:03.996Z,3.05
2019-06-25T08:29:32.503Z,3.22
2019-06-25T08:32:01.075Z,2.62
2019-06-25T08:34:41.558Z,2.70
2019-06-25T08:36:59.975Z,2.67
2019-06-25T08:39:28.628Z,2.80
2019-06-25T08:41:57.186Z,2.40
2019-06-25T08:44:25.669Z,2.20
2019-06-25T08:46:54.221Z,2.47
2019-06-25T08:49:22.792Z,2.60
2019-06-25T08:51:51.302Z,2.92
2019-06-25T08:54:19.837Z,2.52
2019-06-25T08:56:48.363Z,2.72
2019-06-25T08:59:16.970Z,2.30
2019-06-25T09:01:45.466Z,2.58
2019-06-25T09:04:13.988Z,2.50
2019-06-25T09:06:42.513Z,2.67
2019-06-25T09:09:11.124Z,2.77
2019-06-25T09:11:39.879Z,2.50
2019-06-25T09:14:08.617Z,2.70
2019-06-25T09:16:37.138Z,2.33
2019-06-25T09:19:05.642Z,2.70
2019-06-25T09:21:34.163Z,2.98
2019-06-25T09:24:02.726Z,2.90
2019-06-25T09:26:31.361Z,2.70
2019-06-25T09:28:59.918Z,2.60
2019-06-25T09:31:28.482Z,2.65
2019-06-25T09:33:57.036Z,6.50
2019-06-25T09:36:25.622Z,3.22
2019-06-25T09:38:54.479Z,2.75
2019-06-25T09:41:22.218Z,4.03
2019-06-25T09:43:59.632Z,3.10
2019-06-25T09:46:20.288Z,2.42
2019-06-25T09:48:48.943Z,2.77
2019-06-25T09:51:17.582Z,2.58
2019-06-25T09:53:46.470Z,3.02
2019-06-25T09:56:15.044Z,2.72
2019-06-25T09:58:43.685Z,2.90
2019-06-25T10:01:25.443Z,2.75
2019-06-25T10:03:42.563Z,2.50
2019-06-25T10:06:11.061Z,3.05
2019-06-25T10:08:39.641Z,2.75
2019-06-25T10:11:08.205Z,2.90
2019-06-25T10:13:36.794Z,2.85
2019-06-25T10:16:05.376Z,2.80
2019-06-25T10:18:43.727Z,2.77
2019-06-25T10:21:04.393Z,2.80
2019-06-25T10:23:33.036Z,2.62
2019-06-25T10:26:01.614Z,3.37
2019-06-25T10:28:38.493Z,2.90
2019-06-25T10:31:00.536Z,2.85
2019-06-25T10:33:29.137Z,3.00
2019-06-25T10:35:57.734Z,3.00
2019-06-25T10:38:26.296Z,3.35
2019-06-25T10:40:54.879Z,3.30
2019-06-25T10:43:23.396Z,3.58
2019-06-25T10:45:51.970Z,4.35
2019-06-25T10:48:25.254Z,3.10
2019-06-25T10:50:50.832Z,3.00
2019-06-25T10:53:19.445Z,3.58
2019-06-25T10:55:48.022Z,3.00
2019-06-25T10:58:16.660Z,2.70
2019-06-25T11:00:51.647Z,2.80
2019-06-25T11:03:20.266Z,3.00
2019-06-25T11:06:03.436Z,3.60
2019-06-25T11:08:19.257Z,3.07
2019-06-25T11:10:47.928Z,2.90
2019-06-25T11:13:16.563Z,3.37
2019-06-25T11:15:45.096Z,3.23
2019-06-25T11:18:13.637Z,3.00
2019-06-25T11:20:42.169Z,2.90
2019-06-25T11:23:10.765Z,3.07
2019-06-25T11:25:39.295Z,3.13
2019-06-25T11:28:07.840Z,3.10
2019-06-25T11:30:36.432Z,3.37
2019-06-25T11:33:05.077Z,3.07
2019-06-25T11:35:33.544Z,3.20
2019-06-25T11:38:02.154Z,3.37
2019-06-25T11:40:35.053Z,3.27
2019-06-25T11:43:03.824Z,3.10
2019-06-25T11:45:32.341Z,2.93
2019-06-25T11:48:00.858Z,3.20
2019-06-25T11:50:29.516Z,3.17
2019-06-25T11:52:57.991Z,2.83
2019-06-25T11:55:26.555Z,3.10
2019-06-25T11:57:55.136Z,2.57
2019-06-25T12:00:24.279Z,2.90
2019-06-25T12:02:52.833Z,2.53
2019-06-25T12:05:21.423Z,2.70
2019-06-25T12:07:49.928Z,2.63
2019-06-25T12:10:18.665Z,2.70
2019-06-25T12:12:47.220Z,3.20
2019-06-25T12:15:15.907Z,2.90
2019-06-25T12:17:44.421Z,3.00
2019-06-25T12:20:13.025Z,3.00
2019-06-25T12:22:41.576Z,3.27
2019-06-25T12:25:10.237Z,3.00
2019-06-25T12:27:38.837Z,3.30
2019-06-25T12:30:08.928Z,3.67
2019-06-25T12:32:37.492Z,3.00
2019-06-25T12:35:06.233Z,3.43
2019-06-25T12:37:45.516Z,3.27
2019-06-25T12:40:14.024Z,2.97
2019-06-25T12:43:02.904Z,3.03
2019-06-25T12:45:33.135Z,2.83
2019-06-25T12:48:01.843Z,3.30
2019-06-25T12:50:30.365Z,2.97
2019-06-25T12:52:58.893Z,3.40
2019-06-25T12:55:27.391Z,3.13
2019-06-25T12:57:55.886Z,3.00
2019-06-25T13:00:24.418Z,2.77
2019-06-25T13:02:52.972Z,3.30
2019-06-25T13:05:21.553Z,3.73
2019-06-25T13:07:50.124Z,3.43
2019-06-25T13:10:20.857Z,3.20
2019-06-25T13:12:49.385Z,3.37
2019-06-25T13:15:18.064Z,3.20
2019-06-25T13:17:46.621Z,3.30
2019-06-25T13:20:15.306Z,3.10
2019-06-25T13:22:43.832Z,3.57
2019-06-25T13:25:12.419Z,3.63
2019-06-25T13:33:58.150Z,3.63
2019-06-25T13:36:26.718Z,3.50
2019-06-25T13:38:55.201Z,3.50
2019-06-25T13:41:23.756Z,4.00
2019-06-25T13:43:52.235Z,3.23
2019-06-25T13:46:20.790Z,3.60
2019-06-25T13:48:49.289Z,3.67
2019-06-25T13:51:17.829Z,3.70
2019-06-25T13:53:46.308Z,3.43
2019-06-25T13:56:15.577Z,3.70
2019-06-25T13:59:23.990Z,3.27
2019-06-25T14:01:53.597Z,3.83
2019-06-25T14:04:30.860Z,3.90
2019-06-25T14:07:00.009Z,3.80
2019-06-25T14:09:50.967Z,3.70
2019-06-25T14:12:20.260Z,3.77
2019-06-25T14:14:49.624Z,3.97
2019-06-25T14:17:18.999Z,4.10
2019-06-25T14:19:48.711Z,4.00
2019-06-25T14:22:22.293Z,3.70
2019-06-25T14:24:55.365Z,3.90
2019-06-25T14:27:29.680Z,3.93
2019-06-25T14:30:06.882Z,4.27
2019-06-25T14:32:38.846Z,4.20
2019-06-25T14:35:12.698Z,4.30
2019-06-25T14:37:42.250Z,4.10
2019-06-25T14:40:12.028Z,4.70
2019-06-25T14:42:43.829Z,3.93
2019-06-25T14:45:18.186Z,4.60
2019-06-25T14:47:48.036Z,4.50
2019-06-25T14:50:30.330Z,4.40
2019-06-25T14:53:08.218Z,4.17
2019-06-25T14:55:37.954Z,4.40
2019-06-25T15:11:17.052Z,4.73
2019-06-25T15:13:48.088Z,4.20
2019-06-25T15:16:17.523Z,4.00
2019-06-25T15:21:32.033Z,4.03
2019-06-25T15:24:01.758Z,4.30
2019-06-25T15:26:32.281Z,3.90
2019-06-25T15:29:02.604Z,4.33
2019-06-25T15:31:31.574Z,4.10
2019-06-25T15:34:01.164Z,3.90
2019-06-25T15:36:37.965Z,3.80
2019-06-25T15:39:25.510Z,4.17
2019-06-25T15:42:17.289Z,4.37
2019-06-25T15:51:33.199Z,4.20
2019-06-25T15:54:36.855Z,4.50
2019-06-25T15:57:36.741Z,4.10
2019-06-25T16:00:10.870Z,4.50
2019-06-25T16:03:00.999Z,4.27
2019-06-25T16:12:42.057Z,4.50
2019-06-25T16:15:41.673Z,4.07
2019-06-25T16:36:05.212Z,4.30
2019-06-25T16:55:44.960Z,4.50
2019-06-25T17:00:50.177Z,4.50
2019-06-25T17:03:20.955Z,4.73
2019-06-25T17:05:49.637Z,4.70
2019-06-25T17:08:18.371Z,5.33
2019-06-25T17:10:46.954Z,4.60
2019-06-25T17:13:17.465Z,4.73
2019-06-25T17:15:46.305Z,4.60
2019-06-25T17:18:15.142Z,5.17
2019-06-25T17:20:44.021Z,4.70
2019-06-25T17:23:12.719Z,4.53
2019-06-25T17:28:51.320Z,4.97
2019-06-25T17:31:20.044Z,4.40
2019-06-25T17:33:48.751Z,4.70
2019-06-25T17:36:17.435Z,4.70
2019-06-25T17:38:46.019Z,4.63
2019-06-25T17:41:14.763Z,4.60
2019-06-25T17:43:47.396Z,4.10
2019-06-25T17:46:15.062Z,4.60
2019-06-25T17:48:43.561Z,5.13
2019-06-25T17:51:18.740Z,6.80
2019-06-25T17:53:47.532Z,4.60
2019-06-25T17:56:16.400Z,5.33
2019-06-25T17:58:45.199Z,5.20
2019-06-25T18:01:13.941Z,4.97
2019-06-25T18:03:42.465Z,5.20
2019-06-25T18:06:10.988Z,4.50
2019-06-25T18:08:39.539Z,4.80
2019-06-25T18:11:08.166Z,4.60
2019-06-25T18:13:36.694Z,4.70
2019-06-25T18:16:05.290Z,4.97
2019-06-25T18:18:33.816Z,4.43
2019-06-25T18:21:02.636Z,4.33
2019-06-25T18:23:31.133Z,4.90
2019-06-25T18:25:59.697Z,4.50
2019-06-25T18:28:28.438Z,4.65
2019-06-25T18:30:57.039Z,4.90
2019-06-25T18:33:25.642Z,4.50
2019-06-25T18:35:54.343Z,4.80
2019-06-25T18:38:22.926Z,4.70
2019-06-25T18:40:51.450Z,5.13
2019-06-25T18:43:20.008Z,4.80
2019-06-25T18:45:48.519Z,4.23
2019-06-25T18:48:17.083Z,4.80
2019-06-25T18:50:45.626Z,4.40
2019-06-25T18:53:14.192Z,4.77
2019-06-25T18:55:42.762Z,4.90
2019-06-25T18:58:11.270Z,5.40
2019-06-25T19:00:39.776Z,4.57
2019-06-25T19:03:08.331Z,4.60
2019-06-25T19:05:36.870Z,4.97
2019-06-25T19:08:05.427Z,4.93
2019-06-25T19:10:40.508Z,4.30
2019-06-25T19:13:04.335Z,4.60
2019-06-25T19:15:32.909Z,4.50
2019-06-25T19:18:01.628Z,4.57
2019-06-25T19:20:30.345Z,4.50
2019-06-25T19:22:59.034Z,4.70
2019-06-25T19:25:27.648Z,4.60
2019-06-25T19:27:56.332Z,5.00
2019-06-25T19:30:25.117Z,4.90
2019-06-25T19:32:53.712Z,4.77
2019-06-25T19:35:22.347Z,4.30
2019-06-25T19:37:51.047Z,4.40
2019-06-25T19:40:19.728Z,4.50
2019-06-25T19:42:48.285Z,4.50
2019-06-25T19:45:16.872Z,4.30
2019-06-25T19:47:50.223Z,4.70
2019-06-25T19:50:17.758Z,4.70
2019-06-25T19:52:46.245Z,4.47
2019-06-25T19:55:14.813Z,4.30
2019-06-25T19:57:43.456Z,3.97
2019-06-25T20:00:13.629Z,4.30
2019-06-25T20:02:42.365Z,4.67
2019-06-25T20:05:11.064Z,3.97
2019-06-25T20:07:39.724Z,4.77
2019-06-25T20:10:08.419Z,4.33
2019-06-25T20:12:37.173Z,4.77
2019-06-25T20:15:05.890Z,4.17
2019-06-25T20:17:34.578Z,4.40
2019-06-25T20:20:03.368Z,4.23
2019-06-25T20:22:32.233Z,4.23
2019-06-25T20:25:00.872Z,4.40
2019-06-25T20:27:29.495Z,4.30
2019-06-25T20:29:58.163Z,4.00
2019-06-25T20:32:26.717Z,4.50
2019-06-25T20:34:55.289Z,4.60
2019-06-25T20:37:23.872Z,4.73
2019-06-25T20:39:52.518Z,4.60
2019-06-25T20:42:21.122Z,4.30
2019-06-25T20:44:49.870Z,5.00
2019-06-25T20:47:18.468Z,5.10
2019-06-25T20:49:47.132Z,4.67
2019-06-25T20:52:15.730Z,4.63
2019-06-25T20:54:45.472Z,4.73
2019-06-25T20:57:14.137Z,4.87
2019-06-25T20:59:42.723Z,4.40
2019-06-25T21:02:11.362Z,4.73
2019-06-25T21:04:39.939Z,5.00
2019-06-25T21:07:08.587Z,4.10
2019-06-25T21:09:37.145Z,5.07
2019-06-25T21:12:05.785Z,4.83
2019-06-25T21:14:34.412Z,4.87
2019-06-25T21:17:03.191Z,4.80
2019-06-25T21:19:42.543Z,5.33
2019-06-25T21:22:02.170Z,5.20
2019-06-25T21:24:30.785Z,5.00
2019-06-25T21:26:59.381Z,5.77
2019-06-25T21:29:27.947Z,5.60
2019-06-25T21:31:56.543Z,5.60
2019-06-25T21:34:25.925Z,5.63
2019-06-25T21:36:55.179Z,6.35
2019-06-25T21:39:23.688Z,6.10
2019-06-25T21:42:04.113Z,6.00
2019-06-25T21:44:22.428Z,5.47
2019-06-25T21:47:05.961Z,5.40
2019-06-25T21:49:21.353Z,5.13
2019-06-25T21:51:50.625Z,5.27
2019-06-25T21:54:19.682Z,5.53
2019-06-25T21:56:48.789Z,5.20
2019-06-25T21:59:17.963Z,5.70
2019-06-25T22:01:49.022Z,5.47
2019-06-25T22:04:18.081Z,5.70
2019-06-25T22:06:49.065Z,5.43
2019-06-25T22:09:18.073Z,5.10
2019-06-25T22:11:47.168Z,5.33
2019-06-25T22:14:16.283Z,4.63
2019-06-25T22:16:45.392Z,5.50
2019-06-25T22:19:14.524Z,5.77
2019-06-25T22:21:43.645Z,4.93
2019-06-25T22:24:12.716Z,5.10
2019-06-25T22:26:41.794Z,5.00
2019-06-25T22:29:10.882Z,5.00
2019-06-25T22:31:39.967Z,5.13
2019-06-25T22:34:09.131Z,5.80
2019-06-25T22:36:38.228Z,5.77
2019-06-25T22:39:08.098Z,5.63
2019-06-25T22:41:37.226Z,5.47
2019-06-25T22:44:06.348Z,6.13
2019-06-25T22:46:35.466Z,6.00
2019-06-25T22:49:05.626Z,5.70
2019-06-25T22:51:34.708Z,6.03
2019-06-25T22:54:03.767Z,5.70
2019-06-25T22:56:32.884Z,6.40
2019-06-25T22:59:02.005Z,6.20
2019-06-25T23:01:30.576Z,6.60
2019-06-25T23:03:59.131Z,6.87
2019-06-25T23:06:28.273Z,7.08
2019-06-25T23:08:57.402Z,6.70
2019-06-25T23:11:28.481Z,6.77
2019-06-25T23:13:57.420Z,6.77
2019-06-25T23:16:26.631Z,7.93
2019-06-25T23:18:55.704Z,7.80
2019-06-25T23:21:24.822Z,8.17
2019-06-25T23:23:53.954Z,8.10
2019-06-25T23:26:23.048Z,8.73
2019-06-25T23:28:52.280Z,8.30
2019-06-25T23:31:20.806Z,9.67
2019-06-25T23:33:49.321Z,10.03
2019-06-25T23:36:17.814Z,10.00
2019-06-25T23:38:46.338Z,10.67
2019-06-25T23:41:14.772Z,10.77
2019-06-25T23:43:43.372Z,10.93
2019-06-25T23:46:11.902Z,10.60
2019-06-25T23:48:40.417Z,13.57
2019-06-25T23:51:08.967Z,12.43
2019-06-25T23:53:37.490Z,13.37
2019-06-25T23:56:05.989Z,16.93
2019-06-25T23:58:34.541Z,15.43
